createdAt,value
2022-09-14T00:01:34.803Z,17.10
2022-09-14T00:04:29.265Z,17.10
2022-09-14T00:07:16.363Z,17.10
2022-09-14T00:10:10.330Z,17.10
2022-09-14T00:12:58.166Z,17.10
2022-09-14T00:15:53.264Z,17.10
2022-09-14T00:18:40.408Z,17.10
2022-09-14T00:21:36.271Z,17.10
2022-09-14T00:24:31.290Z,17.10
2022-09-14T00:27:18.357Z,17.10
2022-09-14T00:30:13.321Z,17.10
2022-09-14T00:33:00.425Z,17.00
2022-09-14T00:35:54.300Z,17.10
2022-09-14T00:38:41.997Z,17.00
2022-09-14T00:41:39.345Z,17.00
2022-09-14T00:44:29.367Z,17.00
2022-09-14T00:47:24.317Z,17.00
2022-09-14T00:50:18.312Z,17.00
2022-09-14T00:53:12.312Z,17.00
2022-09-14T00:56:06.319Z,17.00
2022-09-14T00:59:02.325Z,17.00
2022-09-14T01:01:50.394Z,17.10
2022-09-14T01:04:44.361Z,17.00
2022-09-14T01:08:08.338Z,17.00
2022-09-14T01:11:11.357Z,17.00
2022-09-14T01:14:08.089Z,16.90
2022-09-14T01:17:26.358Z,16.90
2022-09-14T01:20:38.780Z,16.90
2022-09-14T01:23:46.433Z,16.90
2022-09-14T01:27:07.380Z,16.90
2022-09-14T01:30:08.683Z,16.90
2022-09-14T01:33:24.383Z,16.90
2022-09-14T01:36:21.544Z,16.90
2022-09-14T01:39:17.379Z,16.80
2022-09-14T01:42:11.388Z,16.80
2022-09-14T01:45:03.122Z,16.80
2022-09-14T01:48:04.440Z,16.80
2022-09-14T01:50:56.673Z,16.80
2022-09-14T01:54:02.437Z,16.80
2022-09-14T01:57:03.443Z,16.80
2022-09-14T02:00:01.435Z,16.80
2022-09-14T02:03:15.410Z,16.80
2022-09-14T02:06:14.458Z,16.80
2022-09-14T02:09:09.443Z,16.80
2022-09-14T02:12:00.685Z,16.70
2022-09-14T02:14:54.442Z,16.70
2022-09-14T02:17:42.148Z,16.70
2022-09-14T02:20:55.456Z,16.80
2022-09-14T02:23:49.452Z,16.70
2022-09-14T02:26:37.725Z,16.80
2022-09-14T02:29:31.545Z,16.70
2022-09-14T02:32:32.038Z,16.70
2022-09-14T02:35:34.536Z,16.80
2022-09-14T02:38:40.592Z,16.80
2022-09-14T02:42:00.505Z,16.80
2022-09-14T02:45:03.893Z,16.70
2022-09-14T02:48:01.546Z,16.70
2022-09-14T02:51:01.324Z,16.80
2022-09-14T02:54:03.480Z,16.80
2022-09-14T02:56:57.484Z,16.70
2022-09-14T02:59:51.488Z,16.70
2022-09-14T03:02:45.525Z,16.70
2022-09-14T03:05:39.553Z,16.70
2022-09-14T03:08:27.380Z,16.70
2022-09-14T03:11:20.544Z,16.60
2022-09-14T03:14:07.735Z,16.70
2022-09-14T03:17:01.559Z,16.60
2022-09-14T03:19:48.753Z,16.70
2022-09-14T03:22:42.548Z,16.60
2022-09-14T03:25:29.691Z,16.50
2022-09-14T03:28:23.624Z,16.50
2022-09-14T03:31:18.587Z,16.50
2022-09-14T03:34:12.629Z,16.50
2022-09-14T03:37:06.565Z,16.50
2022-09-14T03:39:53.618Z,16.40
2022-09-14T03:42:55.581Z,16.40
2022-09-14T03:45:42.646Z,16.40
2022-09-14T03:48:36.606Z,16.40
2022-09-14T03:51:30.604Z,16.40
2022-09-14T03:54:17.683Z,16.40
2022-09-14T03:57:11.593Z,16.40
2022-09-14T04:00:05.606Z,16.40
2022-09-14T04:02:52.662Z,16.30
2022-09-14T04:05:46.656Z,16.30
2022-09-14T04:08:36.018Z,16.30
2022-09-14T04:11:31.611Z,16.30
2022-09-14T04:14:18.798Z,16.20
2022-09-14T04:17:12.646Z,16.30
2022-09-14T04:20:06.670Z,16.30
2022-09-14T04:22:53.729Z,16.20
2022-09-14T04:25:47.683Z,16.20
2022-09-14T04:28:41.631Z,16.20
2022-09-14T04:31:35.830Z,16.20
2022-09-14T04:34:22.971Z,16.20
2022-09-14T04:37:16.630Z,16.20
2022-09-14T04:40:10.694Z,16.20
2022-09-14T04:43:04.651Z,16.20
2022-09-14T04:45:58.754Z,16.20
2022-09-14T04:48:45.915Z,16.20
2022-09-14T04:51:41.683Z,16.20
2022-09-14T04:54:28.794Z,16.20
2022-09-14T04:57:22.747Z,16.20
2022-09-14T05:00:10.314Z,16.20
2022-09-14T05:03:03.945Z,16.20
2022-09-14T05:05:54.100Z,16.20
2022-09-14T05:08:48.720Z,16.20
2022-09-14T05:11:43.712Z,16.20
2022-09-14T05:14:30.745Z,16.20
2022-09-14T05:17:24.729Z,16.10
2022-09-14T05:20:11.775Z,16.20
2022-09-14T05:23:05.723Z,16.20
2022-09-14T05:25:53.512Z,16.10
2022-09-14T05:28:47.775Z,16.20
2022-09-14T05:31:34.925Z,16.20
2022-09-14T05:34:28.734Z,16.20
2022-09-14T05:37:22.766Z,16.20
2022-09-14T05:40:16.789Z,16.20
2022-09-14T05:43:03.872Z,16.20
2022-09-14T05:45:57.770Z,16.20
2022-09-14T05:48:44.862Z,16.20
2022-09-14T05:51:38.808Z,16.20
2022-09-14T05:54:32.746Z,16.20
2022-09-14T05:57:26.773Z,16.20
2022-09-14T06:00:20.835Z,16.20
2022-09-14T06:03:07.848Z,16.20
2022-09-14T06:06:04.810Z,16.20
2022-09-14T06:08:54.093Z,16.20
2022-09-14T06:11:47.853Z,16.20
2022-09-14T06:14:34.963Z,16.30
2022-09-14T06:17:28.822Z,16.20
2022-09-14T06:20:17.684Z,16.30
2022-09-14T06:23:10.856Z,16.30
2022-09-14T06:26:05.879Z,16.40
2022-09-14T06:28:53.483Z,16.40
2022-09-14T06:31:46.826Z,16.50
2022-09-14T06:34:33.927Z,16.50
2022-09-14T06:37:27.842Z,16.60
2022-09-14T06:40:15.058Z,16.60
2022-09-14T06:43:08.860Z,16.60
2022-09-14T06:46:29.852Z,16.60
2022-09-14T06:49:26.865Z,16.50
2022-09-14T06:52:20.903Z,16.50
2022-09-14T06:55:08.379Z,16.50
2022-09-14T06:58:01.893Z,16.50
2022-09-14T07:00:48.922Z,16.50
2022-09-14T07:03:43.959Z,16.50
2022-09-14T07:06:38.997Z,16.50
2022-09-14T07:09:32.905Z,16.60
2022-09-14T07:12:26.908Z,16.70
2022-09-14T07:15:20.930Z,16.70
2022-09-14T07:18:14.887Z,16.80
2022-09-14T07:21:14.007Z,16.80
2022-09-14T07:24:08.153Z,16.80
2022-09-14T07:26:55.232Z,16.80
2022-09-14T07:29:48.930Z,16.90
2022-09-14T07:32:36.050Z,16.90
2022-09-14T07:35:29.983Z,17.00
2022-09-14T07:38:41.771Z,17.10
2022-09-14T07:41:39.940Z,17.10
2022-09-14T07:44:33.961Z,17.20
2022-09-14T07:47:20.988Z,17.20
2022-09-14T07:50:15.016Z,17.30
2022-09-14T07:53:02.050Z,17.30
2022-09-14T07:55:56.017Z,17.30
2022-09-14T07:58:44.101Z,17.40
2022-09-14T08:01:38.071Z,17.40
2022-09-14T08:04:31.957Z,17.40
2022-09-14T08:07:26.133Z,17.40
2022-09-14T08:10:20.075Z,17.50
2022-09-14T08:13:07.177Z,17.50
2022-09-14T08:16:01.030Z,17.60
2022-09-14T08:18:55.050Z,17.60
2022-09-14T08:21:48.999Z,17.70
2022-09-14T08:24:36.162Z,17.70
2022-09-14T08:27:30.017Z,17.80
2022-09-14T08:30:24.057Z,17.80
2022-09-14T08:33:11.127Z,17.80
2022-09-14T08:36:05.020Z,17.90
2022-09-14T08:38:59.014Z,17.90
2022-09-14T08:41:57.052Z,17.90
2022-09-14T08:44:55.150Z,17.90
2022-09-14T08:47:50.084Z,17.90
2022-09-14T08:50:45.097Z,17.90
2022-09-14T08:53:45.099Z,17.90
2022-09-14T08:56:34.286Z,17.90
2022-09-14T08:59:53.093Z,17.90
2022-09-14T09:03:05.059Z,17.90
2022-09-14T09:06:03.091Z,18.00
2022-09-14T09:09:19.787Z,18.00
2022-09-14T09:12:18.261Z,18.10
2022-09-14T09:15:43.108Z,18.20
2022-09-14T09:18:53.509Z,18.30
2022-09-14T09:21:52.140Z,18.40
2022-09-14T09:24:45.760Z,18.50
2022-09-14T09:27:39.361Z,18.50
2022-09-14T09:30:28.030Z,18.40
2022-09-14T09:33:32.134Z,18.40
2022-09-14T09:36:33.592Z,18.30
2022-09-14T09:39:27.135Z,18.30
2022-09-14T09:42:23.143Z,18.20
2022-09-14T09:45:10.302Z,18.30
2022-09-14T09:48:04.119Z,18.30
2022-09-14T09:51:00.235Z,18.30
2022-09-14T09:54:08.194Z,18.30
2022-09-14T09:57:11.129Z,18.30
2022-09-14T10:00:20.167Z,18.30
2022-09-14T10:03:30.202Z,18.30
2022-09-14T10:06:24.184Z,18.30
2022-09-14T10:09:24.170Z,18.30
2022-09-14T10:12:15.813Z,18.30
2022-09-14T10:15:18.170Z,18.30
2022-09-14T10:18:20.198Z,18.40
2022-09-14T10:21:15.188Z,18.40
2022-09-14T10:24:26.240Z,18.50
2022-09-14T10:27:54.465Z,18.50
2022-09-14T10:30:56.310Z,18.60
2022-09-14T10:33:43.950Z,18.60
2022-09-14T10:36:40.223Z,18.70
2022-09-14T10:39:41.216Z,18.60
2022-09-14T10:43:00.270Z,18.60
2022-09-14T10:45:52.904Z,18.60
2022-09-14T10:48:58.228Z,18.60
2022-09-14T10:52:40.259Z,18.70
2022-09-14T10:56:03.259Z,18.80
2022-09-14T10:59:44.270Z,18.70
2022-09-14T11:02:51.394Z,18.80
2022-09-14T11:05:52.277Z,18.80
2022-09-14T11:08:52.450Z,18.80
2022-09-14T11:12:14.268Z,18.80
2022-09-14T11:15:23.279Z,18.80
2022-09-14T11:18:25.329Z,18.70
2022-09-14T11:21:29.503Z,18.70
2022-09-14T11:25:04.288Z,18.80
2022-09-14T11:28:17.294Z,18.80
2022-09-14T11:31:07.222Z,18.90
2022-09-14T11:34:26.317Z,18.90
2022-09-14T11:37:17.346Z,18.90
2022-09-14T11:40:35.297Z,19.00
2022-09-14T11:43:36.317Z,18.90
2022-09-14T11:46:33.749Z,18.90
2022-09-14T11:49:41.342Z,18.90
2022-09-14T11:52:33.442Z,18.80
2022-09-14T11:55:27.365Z,18.90
2022-09-14T11:58:25.602Z,19.00
2022-09-14T12:01:43.383Z,19.10
2022-09-14T12:04:37.386Z,19.30
2022-09-14T12:07:39.813Z,19.30
2022-09-14T12:10:34.414Z,19.30
2022-09-14T12:13:21.687Z,19.40
2022-09-14T12:16:16.422Z,19.60
2022-09-14T12:19:03.940Z,19.70
2022-09-14T12:21:58.396Z,19.80
2022-09-14T12:24:52.374Z,19.90
2022-09-14T12:27:42.249Z,19.90
2022-09-14T12:30:48.460Z,20.10
2022-09-14T12:33:35.524Z,20.20
2022-09-14T12:36:29.459Z,20.40
2022-09-14T12:39:29.421Z,20.60
2022-09-14T12:42:32.160Z,20.90
2022-09-14T12:45:55.426Z,21.20
2022-09-14T12:48:55.482Z,21.50
2022-09-14T12:51:54.436Z,22.00
2022-09-14T12:55:03.443Z,22.10
2022-09-14T12:58:26.457Z,22.10
2022-09-14T13:01:40.555Z,22.20
2022-09-14T13:04:43.490Z,22.00
2022-09-14T13:07:40.451Z,22.00
2022-09-14T13:10:31.958Z,22.10
2022-09-14T13:13:32.450Z,22.10
2022-09-14T13:16:42.446Z,22.20
2022-09-14T13:19:31.530Z,22.40
2022-09-14T13:22:28.475Z,22.70
2022-09-14T13:25:33.498Z,22.80
2022-09-14T13:28:21.274Z,22.70
2022-09-14T13:31:20.602Z,22.50
2022-09-14T13:34:20.568Z,22.30
2022-09-14T13:37:29.514Z,22.10
2022-09-14T13:40:38.495Z,21.80
2022-09-14T13:43:25.613Z,21.40
2022-09-14T13:46:20.548Z,21.10
2022-09-14T13:49:14.199Z,20.90
2022-09-14T13:52:50.236Z,20.80
2022-09-14T13:55:39.630Z,20.70
2022-09-14T13:58:35.720Z,20.60
2022-09-14T14:01:28.245Z,20.60
2022-09-14T14:04:45.555Z,20.50
2022-09-14T14:07:34.682Z,20.50
2022-09-14T14:10:52.540Z,20.40
2022-09-14T14:13:39.573Z,20.50
2022-09-14T14:16:33.601Z,20.80
2022-09-14T14:19:35.570Z,21.10
2022-09-14T14:22:29.558Z,21.30
2022-09-14T14:25:34.596Z,21.40
2022-09-14T14:28:27.906Z,21.50
2022-09-14T14:31:24.654Z,21.50
2022-09-14T14:34:25.988Z,21.60
2022-09-14T14:37:19.633Z,21.50
2022-09-14T14:40:08.120Z,21.40
2022-09-14T14:43:04.612Z,21.30
2022-09-14T14:45:58.598Z,21.40
2022-09-14T14:48:52.587Z,21.50
2022-09-14T14:51:46.620Z,21.50
2022-09-14T14:54:40.673Z,21.50
2022-09-14T14:57:27.738Z,21.40
2022-09-14T15:00:30.675Z,21.50
2022-09-14T15:03:25.691Z,21.60
2022-09-14T15:06:27.763Z,21.60
2022-09-14T15:09:25.853Z,21.40
2022-09-14T15:12:13.563Z,21.20
2022-09-14T15:15:07.702Z,21.00
2022-09-14T15:17:54.980Z,20.80
2022-09-14T15:20:48.649Z,20.70
2022-09-14T15:23:42.726Z,20.60
2022-09-14T15:26:30.201Z,20.50
2022-09-14T15:29:26.696Z,20.50
2022-09-14T15:32:13.842Z,20.40
2022-09-14T15:35:07.648Z,20.40
2022-09-14T15:37:54.714Z,20.40
2022-09-14T15:40:48.680Z,20.50
2022-09-14T15:43:35.785Z,20.60
2022-09-14T15:46:29.712Z,20.60
2022-09-14T15:49:25.971Z,20.60
2022-09-14T15:52:19.698Z,20.60
2022-09-14T15:55:15.728Z,20.60
2022-09-14T15:58:09.740Z,20.50
2022-09-14T16:00:56.893Z,20.40
2022-09-14T16:03:50.724Z,20.30
2022-09-14T16:06:44.737Z,20.30
2022-09-14T16:09:31.754Z,20.30
2022-09-14T16:12:25.753Z,20.30
2022-09-14T16:15:12.794Z,20.20
2022-09-14T16:18:06.755Z,20.10
2022-09-14T16:20:53.810Z,20.10
2022-09-14T16:23:51.767Z,20.00
2022-09-14T16:26:45.780Z,20.00
2022-09-14T16:29:32.893Z,20.00
2022-09-14T16:32:26.780Z,19.90
2022-09-14T16:35:13.864Z,19.80
2022-09-14T16:38:07.779Z,19.80
2022-09-14T16:40:59.829Z,19.80
2022-09-14T16:43:53.797Z,19.70
2022-09-14T16:46:47.773Z,19.70
2022-09-14T16:49:37.066Z,19.60
2022-09-14T16:52:30.789Z,19.60
2022-09-14T16:55:17.932Z,19.50
2022-09-14T16:58:11.791Z,19.50
2022-09-14T17:01:08.700Z,19.40
2022-09-14T17:04:08.814Z,19.40
2022-09-14T17:06:56.726Z,19.30
2022-09-14T17:09:50.864Z,19.20
2022-09-14T17:12:38.180Z,19.20
2022-09-14T17:15:31.864Z,19.10
2022-09-14T17:18:25.844Z,19.10
2022-09-14T17:21:16.594Z,19.00
2022-09-14T17:24:11.858Z,18.90
2022-09-14T17:27:05.871Z,18.80
2022-09-14T17:29:59.864Z,18.70
2022-09-14T17:32:53.857Z,18.60
2022-09-14T17:35:53.872Z,18.50
2022-09-14T17:38:48.875Z,18.50
2022-09-14T17:41:44.867Z,18.50
2022-09-14T17:44:31.973Z,18.50
2022-09-14T17:47:25.907Z,18.50
2022-09-14T17:50:19.904Z,18.50
2022-09-14T17:53:07.018Z,18.50
2022-09-14T17:56:08.912Z,18.40
2022-09-14T17:59:05.917Z,18.40
2022-09-14T18:01:59.993Z,18.40
2022-09-14T18:04:48.567Z,18.40
2022-09-14T18:07:42.983Z,18.30
2022-09-14T18:10:30.129Z,18.30
2022-09-14T18:13:23.987Z,18.30
2022-09-14T18:16:18.000Z,18.20
2022-09-14T18:19:05.246Z,18.20
2022-09-14T18:21:58.966Z,18.20
2022-09-14T18:24:46.065Z,18.20
2022-09-14T18:27:39.958Z,18.10
2022-09-14T18:30:27.067Z,18.10
2022-09-14T18:33:21.051Z,17.90
2022-09-14T18:36:08.246Z,17.90
2022-09-14T18:39:01.985Z,17.80
2022-09-14T18:42:02.979Z,17.80
2022-09-14T18:44:53.893Z,17.70
2022-09-14T18:47:48.091Z,17.70
2022-09-14T18:50:35.216Z,17.60
2022-09-14T18:53:29.030Z,17.60
2022-09-14T18:56:24.007Z,17.50
2022-09-14T18:59:20.043Z,17.50
2022-09-14T19:02:14.051Z,17.40
2022-09-14T19:05:08.040Z,17.30
2022-09-14T19:08:02.029Z,17.30
2022-09-14T19:10:49.287Z,17.30
2022-09-14T19:13:43.020Z,17.20
2022-09-14T19:16:30.512Z,17.30
2022-09-14T19:19:24.033Z,17.30
2022-09-14T19:22:11.061Z,17.40
2022-09-14T19:25:05.051Z,17.40
2022-09-14T19:27:52.493Z,17.30
2022-09-14T19:30:53.237Z,17.40
2022-09-14T19:33:48.261Z,17.30
2022-09-14T19:36:42.067Z,17.30
2022-09-14T19:39:36.198Z,17.20
2022-09-14T19:42:24.565Z,17.20
2022-09-14T19:45:26.232Z,17.10
2022-09-14T19:48:13.476Z,17.00
2022-09-14T19:51:09.088Z,17.00
2022-09-14T19:54:06.123Z,16.90
2022-09-14T19:57:00.100Z,16.90
2022-09-14T19:59:54.109Z,16.80
2022-09-14T20:02:48.228Z,16.80
2022-09-14T20:05:42.106Z,16.80
2022-09-14T20:08:31.132Z,16.70
2022-09-14T20:11:26.120Z,16.70
2022-09-14T20:14:23.121Z,16.60
2022-09-14T20:17:17.160Z,16.60
2022-09-14T20:20:12.146Z,16.50
2022-09-14T20:22:59.398Z,16.50
2022-09-14T20:25:53.130Z,16.40
2022-09-14T20:28:49.156Z,16.40
2022-09-14T20:31:43.141Z,16.40
2022-09-14T20:34:37.139Z,16.40
2022-09-14T20:37:31.180Z,16.40
2022-09-14T20:40:18.383Z,16.40
2022-09-14T20:43:12.196Z,16.40
2022-09-14T20:46:00.354Z,16.40
2022-09-14T20:48:55.234Z,16.40
2022-09-14T20:51:42.827Z,16.40
2022-09-14T20:54:36.216Z,16.50
2022-09-14T20:57:24.178Z,16.60
2022-09-14T21:00:19.195Z,16.60
2022-09-14T21:03:13.203Z,16.70
2022-09-14T21:06:02.081Z,16.70
2022-09-14T21:08:56.207Z,16.70
2022-09-14T21:11:45.787Z,16.60
2022-09-14T21:14:46.279Z,16.50
2022-09-14T21:17:34.134Z,16.50
2022-09-14T21:20:27.279Z,16.40
2022-09-14T21:23:14.291Z,16.30
2022-09-14T21:26:08.358Z,16.20
2022-09-14T21:29:01.204Z,16.10
2022-09-14T21:31:55.273Z,16.10
2022-09-14T21:34:49.268Z,16.00
2022-09-14T21:37:36.326Z,15.90
2022-09-14T21:40:31.324Z,15.90
2022-09-14T21:43:18.412Z,15.80
2022-09-14T21:46:13.330Z,15.80
2022-09-14T21:49:00.475Z,15.70
2022-09-14T21:51:54.475Z,15.70
2022-09-14T21:54:48.324Z,15.70
2022-09-14T21:57:35.496Z,15.70
2022-09-14T22:00:30.979Z,15.70
2022-09-14T22:03:18.193Z,15.70
2022-09-14T22:06:15.303Z,15.80
2022-09-14T22:09:02.634Z,15.90
2022-09-14T22:11:56.296Z,15.90
2022-09-14T22:14:43.352Z,16.00
2022-09-14T22:17:38.277Z,16.10
2022-09-14T22:20:26.015Z,16.10
2022-09-14T22:23:19.311Z,16.20
2022-09-14T22:26:09.233Z,16.20
2022-09-14T22:29:05.339Z,16.20
2022-09-14T22:31:59.326Z,16.30
2022-09-14T22:34:49.600Z,16.30
2022-09-14T22:37:43.335Z,16.30
2022-09-14T22:40:30.419Z,16.30
2022-09-14T22:43:24.438Z,16.30
2022-09-14T22:46:19.442Z,16.30
2022-09-14T22:49:06.577Z,16.30
2022-09-14T22:52:00.364Z,16.30
2022-09-14T22:54:47.401Z,16.20
2022-09-14T22:57:41.379Z,16.30
2022-09-14T23:00:28.861Z,16.20
2022-09-14T23:03:24.375Z,16.20
2022-09-14T23:06:11.866Z,16.20
2022-09-14T23:09:07.391Z,16.30
2022-09-14T23:11:54.505Z,16.30
2022-09-14T23:14:48.438Z,16.20
2022-09-14T23:17:42.396Z,16.20
2022-09-14T23:20:36.409Z,16.20
2022-09-14T23:23:30.402Z,16.20
2022-09-14T23:26:17.444Z,16.30
2022-09-14T23:29:13.454Z,16.20
2022-09-14T23:32:07.451Z,16.20
2022-09-14T23:35:01.421Z,16.10
2022-09-14T23:37:55.472Z,16.10
2022-09-14T23:40:49.454Z,16.10
2022-09-14T23:43:36.572Z,16.10
2022-09-14T23:46:30.501Z,16.10
2022-09-14T23:49:17.835Z,16.10
2022-09-14T23:52:11.476Z,16.10
2022-09-14T23:54:58.574Z,16.10
2022-09-14T23:57:52.493Z,16.10
